sensor_id;sensor_type;location;lat;lon;timestamp;temperature;humidity
5806;DHT22;2929;50.810;8.342;2023-02-23T00:00:18;5.20;99.90
5806;DHT22;2929;50.810;8.342;2023-02-23T00:02:48;5.20;99.90
5806;DHT22;2929;50.810;8.342;2023-02-23T00:05:16;5.20;99.90
5806;DHT22;2929;50.810;8.342;2023-02-23T00:07:44;5.10;99.90
5806;DHT22;2929;50.810;8.342;2023-02-23T00:10:13;5.00;99.90
5806;DHT22;2929;50.810;8.342;2023-02-23T00:12:41;5.10;99.90
5806;DHT22;2929;50.810;8.342;2023-02-23T00:15:08;5.10;99.90
5806;DHT22;2929;50.810;8.342;2023-02-23T00:17:35;5.20;99.90
5806;DHT22;2929;50.810;8.342;2023-02-23T00:20:04;5.20;99.90
5806;DHT22;2929;50.810;8.342;2023-02-23T00:22:34;5.20;99.90
5806;DHT22;2929;50.810;8.342;2023-02-23T00:25:03;5.20;99.90
5806;DHT22;2929;50.810;8.342;2023-02-23T00:27:34;5.20;99.90
5806;DHT22;2929;50.810;8.342;2023-02-23T00:30:04;5.30;99.90
5806;DHT22;2929;50.810;8.342;2023-02-23T00:32:31;5.30;99.90
5806;DHT22;2929;50.810;8.342;2023-02-23T00:34:59;5.40;99.90
5806;DHT22;2929;50.810;8.342;2023-02-23T00:37:27;5.40;99.90
5806;DHT22;2929;50.810;8.342;2023-02-23T00:39:54;5.30;99.90
5806;DHT22;2929;50.810;8.342;2023-02-23T00:42:23;5.30;99.90
5806;DHT22;2929;50.810;8.342;2023-02-23T00:44:54;5.30;99.90
5806;DHT22;2929;50.810;8.342;2023-02-23T00:47:21;5.30;99.90
5806;DHT22;2929;50.810;8.342;2023-02-23T00:49:48;5.30;99.90
5806;DHT22;2929;50.810;8.342;2023-02-23T00:52:16;5.30;99.90
5806;DHT22;2929;50.810;8.342;2023-02-23T00:54:44;5.30;99.90
5806;DHT22;2929;50.810;8.342;2023-02-23T00:57:13;5.30;99.90
5806;DHT22;2929;50.810;8.342;2023-02-23T00:59:42;5.30;99.90
5806;DHT22;2929;50.810;8.342;2023-02-23T01:02:09;5.20;99.90
5806;DHT22;2929;50.810;8.342;2023-02-23T01:04:36;5.30;99.90
5806;DHT22;2929;50.810;8.342;2023-02-23T01:07:03;5.30;99.90
5806;DHT22;2929;50.810;8.342;2023-02-23T01:09:31;5.30;99.90
5806;DHT22;2929;50.810;8.342;2023-02-23T01:11:58;5.30;99.90
5806;DHT22;2929;50.810;8.342;2023-02-23T01:14:27;5.30;99.90
5806;DHT22;2929;50.810;8.342;2023-02-23T01:16:57;5.30;99.90
5806;DHT22;2929;50.810;8.342;2023-02-23T01:19:24;5.20;99.90
5806;DHT22;2929;50.810;8.342;2023-02-23T01:21:51;5.30;99.90
5806;DHT22;2929;50.810;8.342;2023-02-23T01:24:18;5.30;99.90
5806;DHT22;2929;50.810;8.342;2023-02-23T01:26:45;5.40;99.90
5806;DHT22;2929;50.810;8.342;2023-02-23T01:29:14;5.40;99.90
5806;DHT22;2929;50.810;8.342;2023-02-23T01:31:43;5.40;99.90
5806;DHT22;2929;50.810;8.342;2023-02-23T01:34:13;5.50;99.90
5806;DHT22;2929;50.810;8.342;2023-02-23T01:36:42;5.40;99.90
5806;DHT22;2929;50.810;8.342;2023-02-23T01:39:11;5.50;99.90
5806;DHT22;2929;50.810;8.342;2023-02-23T01:41:40;5.50;99.90
5806;DHT22;2929;50.810;8.342;2023-02-23T01:47:15;5.50;99.90
5806;DHT22;2929;50.810;8.342;2023-02-23T01:49:46;5.60;99.90
5806;DHT22;2929;50.810;8.342;2023-02-23T01:52:16;5.60;99.90
5806;DHT22;2929;50.810;8.342;2023-02-23T01:54:49;5.60;99.90
5806;DHT22;2929;50.810;8.342;2023-02-23T01:57:20;5.50;99.90
5806;DHT22;2929;50.810;8.342;2023-02-23T01:59:50;5.60;99.90
5806;DHT22;2929;50.810;8.342;2023-02-23T02:02:19;5.60;99.90
5806;DHT22;2929;50.810;8.342;2023-02-23T02:04:48;5.60;99.90
5806;DHT22;2929;50.810;8.342;2023-02-23T02:07:18;5.60;99.90
5806;DHT22;2929;50.810;8.342;2023-02-23T02:09:48;5.60;99.90
5806;DHT22;2929;50.810;8.342;2023-02-23T02:12:45;5.60;99.90
5806;DHT22;2929;50.810;8.342;2023-02-23T02:15:13;5.70;99.90
5806;DHT22;2929;50.810;8.342;2023-02-23T02:17:46;5.70;99.90
5806;DHT22;2929;50.810;8.342;2023-02-23T02:23:52;5.80;99.90
5806;DHT22;2929;50.810;8.342;2023-02-23T02:26:31;5.80;99.90
5806;DHT22;2929;50.810;8.342;2023-02-23T02:29:25;5.80;99.90
5806;DHT22;2929;50.810;8.342;2023-02-23T02:32:44;5.90;99.90
5806;DHT22;2929;50.810;8.342;2023-02-23T02:35:51;5.80;99.90
5806;DHT22;2929;50.810;8.342;2023-02-23T02:38:39;5.90;99.90
5806;DHT22;2929;50.810;8.342;2023-02-23T02:41:21;5.90;99.90
5806;DHT22;2929;50.810;8.342;2023-02-23T02:43:55;5.90;99.90
5806;DHT22;2929;50.810;8.342;2023-02-23T02:46:26;5.80;99.90
5806;DHT22;2929;50.810;8.342;2023-02-23T02:48:58;5.80;99.90
5806;DHT22;2929;50.810;8.342;2023-02-23T02:51:33;5.80;99.90
5806;DHT22;2929;50.810;8.342;2023-02-23T02:54:09;5.80;99.90
5806;DHT22;2929;50.810;8.342;2023-02-23T02:56:39;5.70;99.90
5806;DHT22;2929;50.810;8.342;2023-02-23T02:59:11;5.80;99.90
5806;DHT22;2929;50.810;8.342;2023-02-23T03:01:56;5.80;99.90
5806;DHT22;2929;50.810;8.342;2023-02-23T03:04:41;5.80;99.90
5806;DHT22;2929;50.810;8.342;2023-02-23T03:07:30;5.80;99.90
5806;DHT22;2929;50.810;8.342;2023-02-23T03:10:25;5.90;99.90
5806;DHT22;2929;50.810;8.342;2023-02-23T03:13:17;5.80;99.90
5806;DHT22;2929;50.810;8.342;2023-02-23T03:16:12;5.80;99.90
5806;DHT22;2929;50.810;8.342;2023-02-23T03:19:10;5.80;99.90
5806;DHT22;2929;50.810;8.342;2023-02-23T03:22:02;5.80;99.90
5806;DHT22;2929;50.810;8.342;2023-02-23T03:24:53;5.80;99.90
5806;DHT22;2929;50.810;8.342;2023-02-23T03:27:50;5.80;99.90
5806;DHT22;2929;50.810;8.342;2023-02-23T03:30:44;5.80;99.90
5806;DHT22;2929;50.810;8.342;2023-02-23T03:33:37;5.80;99.90
5806;DHT22;2929;50.810;8.342;2023-02-23T03:36:25;5.80;99.90
5806;DHT22;2929;50.810;8.342;2023-02-23T03:39:20;5.80;99.90
5806;DHT22;2929;50.810;8.342;2023-02-23T03:42:10;5.80;99.90
5806;DHT22;2929;50.810;8.342;2023-02-23T03:45:04;5.80;99.90
5806;DHT22;2929;50.810;8.342;2023-02-23T03:47:52;5.80;99.90
5806;DHT22;2929;50.810;8.342;2023-02-23T03:50:40;5.90;99.90
5806;DHT22;2929;50.810;8.342;2023-02-23T03:53:29;5.90;99.90
5806;DHT22;2929;50.810;8.342;2023-02-23T03:56:17;5.80;99.90
5806;DHT22;2929;50.810;8.342;2023-02-23T03:59:04;5.80;99.90
5806;DHT22;2929;50.810;8.342;2023-02-23T04:01:53;5.80;99.90
5806;DHT22;2929;50.810;8.342;2023-02-23T04:04:42;5.80;99.90
5806;DHT22;2929;50.810;8.342;2023-02-23T04:07:28;5.80;99.90
5806;DHT22;2929;50.810;8.342;2023-02-23T04:10:13;5.70;99.90
5806;DHT22;2929;50.810;8.342;2023-02-23T04:13:00;5.80;99.90
5806;DHT22;2929;50.810;8.342;2023-02-23T04:15:43;5.80;99.90
5806;DHT22;2929;50.810;8.342;2023-02-23T04:18:14;5.70;99.90
5806;DHT22;2929;50.810;8.342;2023-02-23T04:20:42;5.70;99.90
5806;DHT22;2929;50.810;8.342;2023-02-23T04:23:09;5.80;99.90
5806;DHT22;2929;50.810;8.342;2023-02-23T04:25:36;5.80;99.90
5806;DHT22;2929;50.810;8.342;2023-02-23T04:28:03;5.70;99.90
5806;DHT22;2929;50.810;8.342;2023-02-23T04:30:30;5.70;99.90
5806;DHT22;2929;50.810;8.342;2023-02-23T04:32:57;5.70;99.90
5806;DHT22;2929;50.810;8.342;2023-02-23T04:35:27;5.70;99.90
5806;DHT22;2929;50.810;8.342;2023-02-23T04:37:56;5.80;99.90
5806;DHT22;2929;50.810;8.342;2023-02-23T04:40:23;5.80;99.90
5806;DHT22;2929;50.810;8.342;2023-02-23T04:42:50;5.80;99.90
5806;DHT22;2929;50.810;8.342;2023-02-23T04:45:18;5.70;99.90
5806;DHT22;2929;50.810;8.342;2023-02-23T04:47:45;5.70;99.90
5806;DHT22;2929;50.810;8.342;2023-02-23T04:50:13;5.70;99.90
5806;DHT22;2929;50.810;8.342;2023-02-23T04:52:41;5.70;99.90
5806;DHT22;2929;50.810;8.342;2023-02-23T04:55:15;5.70;99.90
5806;DHT22;2929;50.810;8.342;2023-02-23T04:57:42;5.70;99.90
5806;DHT22;2929;50.810;8.342;2023-02-23T05:00:11;5.70;99.90
5806;DHT22;2929;50.810;8.342;2023-02-23T05:02:38;5.60;99.90
5806;DHT22;2929;50.810;8.342;2023-02-23T05:05:06;5.60;99.90
5806;DHT22;2929;50.810;8.342;2023-02-23T05:07:34;5.60;99.90
5806;DHT22;2929;50.810;8.342;2023-02-23T05:10:04;5.70;99.90
5806;DHT22;2929;50.810;8.342;2023-02-23T05:12:32;5.60;99.90
5806;DHT22;2929;50.810;8.342;2023-02-23T05:14:59;5.60;99.90
5806;DHT22;2929;50.810;8.342;2023-02-23T05:17:26;5.70;99.90
5806;DHT22;2929;50.810;8.342;2023-02-23T05:19:53;5.60;99.90
5806;DHT22;2929;50.810;8.342;2023-02-23T05:22:21;5.70;99.90
5806;DHT22;2929;50.810;8.342;2023-02-23T05:24:48;5.70;99.90
5806;DHT22;2929;50.810;8.342;2023-02-23T05:27:16;5.70;99.90
5806;DHT22;2929;50.810;8.342;2023-02-23T05:29:43;5.70;99.90
5806;DHT22;2929;50.810;8.342;2023-02-23T05:32:10;5.70;99.90
5806;DHT22;2929;50.810;8.342;2023-02-23T05:34:37;5.70;99.90
5806;DHT22;2929;50.810;8.342;2023-02-23T05:37:05;5.70;99.90
5806;DHT22;2929;50.810;8.342;2023-02-23T05:39:33;5.70;99.90
5806;DHT22;2929;50.810;8.342;2023-02-23T05:42:00;5.70;99.90
5806;DHT22;2929;50.810;8.342;2023-02-23T05:44:28;5.70;99.90
5806;DHT22;2929;50.810;8.342;2023-02-23T05:46:55;5.70;99.90
5806;DHT22;2929;50.810;8.342;2023-02-23T05:49:23;5.70;99.90
5806;DHT22;2929;50.810;8.342;2023-02-23T05:51:51;5.60;99.90
5806;DHT22;2929;50.810;8.342;2023-02-23T05:54:18;5.60;99.90
5806;DHT22;2929;50.810;8.342;2023-02-23T05:56:45;5.70;99.90
5806;DHT22;2929;50.810;8.342;2023-02-23T05:59:12;5.70;99.90
5806;DHT22;2929;50.810;8.342;2023-02-23T06:01:41;5.70;99.90
5806;DHT22;2929;50.810;8.342;2023-02-23T06:04:08;5.80;99.90
5806;DHT22;2929;50.810;8.342;2023-02-23T06:06:35;5.80;99.90
5806;DHT22;2929;50.810;8.342;2023-02-23T06:09:03;5.80;99.90
5806;DHT22;2929;50.810;8.342;2023-02-23T06:11:30;5.80;99.90
5806;DHT22;2929;50.810;8.342;2023-02-23T06:13:58;5.80;99.90
5806;DHT22;2929;50.810;8.342;2023-02-23T06:25:32;5.80;99.90
5806;DHT22;2929;50.810;8.342;2023-02-23T06:27:59;5.80;99.90
5806;DHT22;2929;50.810;8.342;2023-02-23T06:30:26;5.80;99.90
5806;DHT22;2929;50.810;8.342;2023-02-23T06:32:54;5.80;99.90
5806;DHT22;2929;50.810;8.342;2023-02-23T06:35:22;5.80;99.90
5806;DHT22;2929;50.810;8.342;2023-02-23T06:37:50;5.90;99.90
5806;DHT22;2929;50.810;8.342;2023-02-23T06:40:17;5.90;99.90
5806;DHT22;2929;50.810;8.342;2023-02-23T06:42:46;5.90;99.90
5806;DHT22;2929;50.810;8.342;2023-02-23T06:45:13;5.90;99.90
5806;DHT22;2929;50.810;8.342;2023-02-23T06:47:40;5.90;99.90
5806;DHT22;2929;50.810;8.342;2023-02-23T06:50:09;5.90;99.90
5806;DHT22;2929;50.810;8.342;2023-02-23T06:52:37;5.90;99.90
5806;DHT22;2929;50.810;8.342;2023-02-23T06:55:05;5.90;99.90
5806;DHT22;2929;50.810;8.342;2023-02-23T06:57:32;5.90;99.90
5806;DHT22;2929;50.810;8.342;2023-02-23T07:00:06;5.90;99.90
5806;DHT22;2929;50.810;8.342;2023-02-23T07:02:33;5.90;99.90
5806;DHT22;2929;50.810;8.342;2023-02-23T07:05:02;5.90;99.90
5806;DHT22;2929;50.810;8.342;2023-02-23T07:07:29;5.90;99.90
5806;DHT22;2929;50.810;8.342;2023-02-23T07:09:57;5.90;99.90
5806;DHT22;2929;50.810;8.342;2023-02-23T07:12:25;5.90;99.90
5806;DHT22;2929;50.810;8.342;2023-02-23T07:14:52;6.00;99.90
5806;DHT22;2929;50.810;8.342;2023-02-23T07:17:21;6.00;99.90
5806;DHT22;2929;50.810;8.342;2023-02-23T07:19:48;6.00;99.90
5806;DHT22;2929;50.810;8.342;2023-02-23T07:22:15;6.00;99.90
5806;DHT22;2929;50.810;8.342;2023-02-23T07:24:42;6.10;99.90
5806;DHT22;2929;50.810;8.342;2023-02-23T07:27:10;6.10;99.90
5806;DHT22;2929;50.810;8.342;2023-02-23T07:29:37;6.10;99.90
5806;DHT22;2929;50.810;8.342;2023-02-23T07:32:05;6.20;99.90
5806;DHT22;2929;50.810;8.342;2023-02-23T07:34:33;6.20;99.90
5806;DHT22;2929;50.810;8.342;2023-02-23T07:37:02;6.20;99.90
5806;DHT22;2929;50.810;8.342;2023-02-23T07:39:29;6.20;99.90
5806;DHT22;2929;50.810;8.342;2023-02-23T07:41:57;6.20;99.90
5806;DHT22;2929;50.810;8.342;2023-02-23T07:44:25;6.30;99.90
5806;DHT22;2929;50.810;8.342;2023-02-23T07:46:52;6.30;99.90
5806;DHT22;2929;50.810;8.342;2023-02-23T07:49:19;6.30;99.90
5806;DHT22;2929;50.810;8.342;2023-02-23T07:51:48;6.30;99.90
5806;DHT22;2929;50.810;8.342;2023-02-23T07:54:15;6.40;99.90
5806;DHT22;2929;50.810;8.342;2023-02-23T07:56:42;6.40;99.90
5806;DHT22;2929;50.810;8.342;2023-02-23T07:59:09;6.40;99.90
5806;DHT22;2929;50.810;8.342;2023-02-23T08:01:37;6.50;99.90
5806;DHT22;2929;50.810;8.342;2023-02-23T08:04:04;6.50;99.90
5806;DHT22;2929;50.810;8.342;2023-02-23T08:06:31;6.50;99.90
5806;DHT22;2929;50.810;8.342;2023-02-23T08:09:00;6.50;99.90
5806;DHT22;2929;50.810;8.342;2023-02-23T08:11:28;6.50;99.90
5806;DHT22;2929;50.810;8.342;2023-02-23T08:13:56;6.60;99.90
5806;DHT22;2929;50.810;8.342;2023-02-23T08:16:25;6.60;99.90
5806;DHT22;2929;50.810;8.342;2023-02-23T08:18:52;6.60;99.90
5806;DHT22;2929;50.810;8.342;2023-02-23T08:21:19;6.60;99.90
5806;DHT22;2929;50.810;8.342;2023-02-23T08:23:47;6.60;99.90
5806;DHT22;2929;50.810;8.342;2023-02-23T08:26:15;6.60;99.90
5806;DHT22;2929;50.810;8.342;2023-02-23T08:28:42;6.80;99.90
5806;DHT22;2929;50.810;8.342;2023-02-23T08:31:12;6.80;99.90
5806;DHT22;2929;50.810;8.342;2023-02-23T08:33:40;6.80;99.90
5806;DHT22;2929;50.810;8.342;2023-02-23T08:36:08;6.80;99.90
5806;DHT22;2929;50.810;8.342;2023-02-23T08:38:35;6.80;99.90
5806;DHT22;2929;50.810;8.342;2023-02-23T08:41:02;6.80;99.90
5806;DHT22;2929;50.810;8.342;2023-02-23T08:43:31;6.90;99.90
5806;DHT22;2929;50.810;8.342;2023-02-23T08:45:58;7.00;99.90
5806;DHT22;2929;50.810;8.342;2023-02-23T08:48:26;7.00;99.90
5806;DHT22;2929;50.810;8.342;2023-02-23T08:50:55;7.10;99.90
5806;DHT22;2929;50.810;8.342;2023-02-23T08:53:23;7.10;99.90
5806;DHT22;2929;50.810;8.342;2023-02-23T08:55:56;7.10;99.90
5806;DHT22;2929;50.810;8.342;2023-02-23T08:58:23;7.10;99.90
5806;DHT22;2929;50.810;8.342;2023-02-23T09:00:51;7.10;99.90
5806;DHT22;2929;50.810;8.342;2023-02-23T09:03:19;7.10;99.90
5806;DHT22;2929;50.810;8.342;2023-02-23T09:05:46;7.20;99.90
5806;DHT22;2929;50.810;8.342;2023-02-23T09:08:14;7.10;99.90
5806;DHT22;2929;50.810;8.342;2023-02-23T09:10:42;7.10;99.90
5806;DHT22;2929;50.810;8.342;2023-02-23T09:13:10;7.10;99.90
5806;DHT22;2929;50.810;8.342;2023-02-23T09:15:37;7.10;99.90
5806;DHT22;2929;50.810;8.342;2023-02-23T09:18:09;7.10;99.90
5806;DHT22;2929;50.810;8.342;2023-02-23T09:20:40;7.10;99.90
5806;DHT22;2929;50.810;8.342;2023-02-23T09:23:07;7.20;99.90
5806;DHT22;2929;50.810;8.342;2023-02-23T09:25:38;7.20;99.90
5806;DHT22;2929;50.810;8.342;2023-02-23T09:28:09;7.30;99.90
5806;DHT22;2929;50.810;8.342;2023-02-23T09:30:39;7.30;99.90
5806;DHT22;2929;50.810;8.342;2023-02-23T09:33:08;7.30;99.90
5806;DHT22;2929;50.810;8.342;2023-02-23T09:35:36;7.40;99.90
5806;DHT22;2929;50.810;8.342;2023-02-23T09:38:06;7.40;99.90
5806;DHT22;2929;50.810;8.342;2023-02-23T09:40:42;7.50;99.90
5806;DHT22;2929;50.810;8.342;2023-02-23T09:43:12;7.60;99.90
5806;DHT22;2929;50.810;8.342;2023-02-23T09:45:42;7.60;99.90
5806;DHT22;2929;50.810;8.342;2023-02-23T09:48:15;7.60;99.90
5806;DHT22;2929;50.810;8.342;2023-02-23T09:50:46;7.70;99.90
5806;DHT22;2929;50.810;8.342;2023-02-23T09:53:25;7.80;99.90
5806;DHT22;2929;50.810;8.342;2023-02-23T09:55:55;7.70;99.90
5806;DHT22;2929;50.810;8.342;2023-02-23T09:58:25;7.90;99.90
5806;DHT22;2929;50.810;8.342;2023-02-23T10:01:05;8.00;99.90
5806;DHT22;2929;50.810;8.342;2023-02-23T10:03:39;8.10;99.90
5806;DHT22;2929;50.810;8.342;2023-02-23T10:06:12;8.20;99.90
5806;DHT22;2929;50.810;8.342;2023-02-23T10:08:45;8.20;99.90
5806;DHT22;2929;50.810;8.342;2023-02-23T10:11:22;8.20;99.90
5806;DHT22;2929;50.810;8.342;2023-02-23T10:13:58;8.10;99.90
5806;DHT22;2929;50.810;8.342;2023-02-23T10:16:40;8.00;99.90
5806;DHT22;2929;50.810;8.342;2023-02-23T10:19:20;8.00;99.90
5806;DHT22;2929;50.810;8.342;2023-02-23T10:21:54;8.00;99.90
5806;DHT22;2929;50.810;8.342;2023-02-23T10:24:26;8.00;99.90
5806;DHT22;2929;50.810;8.342;2023-02-23T10:26:58;8.20;99.90
5806;DHT22;2929;50.810;8.342;2023-02-23T10:29:28;8.20;99.90
5806;DHT22;2929;50.810;8.342;2023-02-23T10:31:59;8.20;99.90
5806;DHT22;2929;50.810;8.342;2023-02-23T10:34:30;8.20;99.90
5806;DHT22;2929;50.810;8.342;2023-02-23T10:36:59;8.20;99.90
5806;DHT22;2929;50.810;8.342;2023-02-23T10:39:28;8.10;99.90
5806;DHT22;2929;50.810;8.342;2023-02-23T10:41:57;8.10;99.90
5806;DHT22;2929;50.810;8.342;2023-02-23T10:44:26;8.10;99.90
5806;DHT22;2929;50.810;8.342;2023-02-23T10:46:57;8.10;99.90
5806;DHT22;2929;50.810;8.342;2023-02-23T10:49:31;8.20;99.90
5806;DHT22;2929;50.810;8.342;2023-02-23T10:52:01;8.20;99.90
5806;DHT22;2929;50.810;8.342;2023-02-23T10:54:37;8.20;99.90
5806;DHT22;2929;50.810;8.342;2023-02-23T10:57:08;8.30;99.90
5806;DHT22;2929;50.810;8.342;2023-02-23T10:59:40;8.30;99.90
5806;DHT22;2929;50.810;8.342;2023-02-23T11:02:22;8.40;99.90
5806;DHT22;2929;50.810;8.342;2023-02-23T11:04:53;8.40;99.90
5806;DHT22;2929;50.810;8.342;2023-02-23T11:07:23;8.40;99.90
5806;DHT22;2929;50.810;8.342;2023-02-23T11:09:54;8.50;99.90
5806;DHT22;2929;50.810;8.342;2023-02-23T11:12:23;8.50;99.90
5806;DHT22;2929;50.810;8.342;2023-02-23T11:14:54;8.60;99.90
5806;DHT22;2929;50.810;8.342;2023-02-23T11:17:28;8.60;99.90
5806;DHT22;2929;50.810;8.342;2023-02-23T11:20:24;8.60;99.90
5806;DHT22;2929;50.810;8.342;2023-02-23T11:22:52;8.60;99.90
5806;DHT22;2929;50.810;8.342;2023-02-23T11:25:26;8.70;99.90
5806;DHT22;2929;50.810;8.342;2023-02-23T11:27:54;8.80;99.90
5806;DHT22;2929;50.810;8.342;2023-02-23T11:30:24;8.80;99.90
5806;DHT22;2929;50.810;8.342;2023-02-23T11:32:56;8.90;99.90
5806;DHT22;2929;50.810;8.342;2023-02-23T11:35:36;8.80;99.90
5806;DHT22;2929;50.810;8.342;2023-02-23T11:38:15;8.90;99.90
5806;DHT22;2929;50.810;8.342;2023-02-23T11:40:57;8.90;99.90
5806;DHT22;2929;50.810;8.342;2023-02-23T11:43:28;8.90;99.90
5806;DHT22;2929;50.810;8.342;2023-02-23T11:46:00;8.90;99.90
5806;DHT22;2929;50.810;8.342;2023-02-23T11:48:31;8.90;99.90
5806;DHT22;2929;50.810;8.342;2023-02-23T11:51:01;9.00;99.90
5806;DHT22;2929;50.810;8.342;2023-02-23T11:53:32;8.90;99.90
5806;DHT22;2929;50.810;8.342;2023-02-23T11:56:02;8.90;99.90
5806;DHT22;2929;50.810;8.342;2023-02-23T11:58:36;8.90;99.90
5806;DHT22;2929;50.810;8.342;2023-02-23T12:01:06;8.90;99.90
5806;DHT22;2929;50.810;8.342;2023-02-23T12:03:45;8.90;99.90
5806;DHT22;2929;50.810;8.342;2023-02-23T12:06:25;8.90;99.90
5806;DHT22;2929;50.810;8.342;2023-02-23T12:08:58;8.80;99.90
5806;DHT22;2929;50.810;8.342;2023-02-23T12:11:31;8.80;99.90
5806;DHT22;2929;50.810;8.342;2023-02-23T12:14:02;8.80;99.90
5806;DHT22;2929;50.810;8.342;2023-02-23T12:16:34;8.70;99.90
5806;DHT22;2929;50.810;8.342;2023-02-23T12:19:17;8.70;99.90
5806;DHT22;2929;50.810;8.342;2023-02-23T12:21:51;8.70;99.90
5806;DHT22;2929;50.810;8.342;2023-02-23T12:24:24;8.70;99.90
5806;DHT22;2929;50.810;8.342;2023-02-23T12:26:57;8.70;99.90
5806;DHT22;2929;50.810;8.342;2023-02-23T12:29:30;8.70;99.90
5806;DHT22;2929;50.810;8.342;2023-02-23T12:32:01;8.70;99.90
5806;DHT22;2929;50.810;8.342;2023-02-23T12:34:32;8.60;99.90
5806;DHT22;2929;50.810;8.342;2023-02-23T12:37:15;8.60;99.90
5806;DHT22;2929;50.810;8.342;2023-02-23T12:39:47;8.50;99.90
5806;DHT22;2929;50.810;8.342;2023-02-23T12:42:22;8.40;99.90
5806;DHT22;2929;50.810;8.342;2023-02-23T12:44:53;8.30;99.90
5806;DHT22;2929;50.810;8.342;2023-02-23T12:47:26;8.20;99.90
5806;DHT22;2929;50.810;8.342;2023-02-23T12:50:01;8.20;99.90
5806;DHT22;2929;50.810;8.342;2023-02-23T12:52:36;8.30;99.90
5806;DHT22;2929;50.810;8.342;2023-02-23T12:55:09;8.30;99.90
5806;DHT22;2929;50.810;8.342;2023-02-23T12:57:41;8.30;99.90
5806;DHT22;2929;50.810;8.342;2023-02-23T13:00:34;8.30;99.90
5806;DHT22;2929;50.810;8.342;2023-02-23T13:06:10;8.40;99.90
5806;DHT22;2929;50.810;8.342;2023-02-23T13:08:55;8.40;99.90
5806;DHT22;2929;50.810;8.342;2023-02-23T13:11:34;8.50;99.90
5806;DHT22;2929;50.810;8.342;2023-02-23T13:14:12;8.50;99.90
5806;DHT22;2929;50.810;8.342;2023-02-23T13:16:46;8.50;99.90
5806;DHT22;2929;50.810;8.342;2023-02-23T13:19:19;8.50;99.90
5806;DHT22;2929;50.810;8.342;2023-02-23T13:21:50;8.60;99.90
5806;DHT22;2929;50.810;8.342;2023-02-23T13:24:23;8.50;99.90
5806;DHT22;2929;50.810;8.342;2023-02-23T13:26:56;8.60;99.90
5806;DHT22;2929;50.810;8.342;2023-02-23T13:29:31;8.50;99.90
5806;DHT22;2929;50.810;8.342;2023-02-23T13:32:02;8.50;99.90
5806;DHT22;2929;50.810;8.342;2023-02-23T13:34:32;8.50;99.90
5806;DHT22;2929;50.810;8.342;2023-02-23T13:37:03;8.50;99.90
5806;DHT22;2929;50.810;8.342;2023-02-23T13:39:44;8.40;99.90
5806;DHT22;2929;50.810;8.342;2023-02-23T13:42:23;8.40;99.90
5806;DHT22;2929;50.810;8.342;2023-02-23T13:44:59;8.40;99.90
5806;DHT22;2929;50.810;8.342;2023-02-23T13:47:35;8.40;99.90
5806;DHT22;2929;50.810;8.342;2023-02-23T13:50:18;8.40;99.90
5806;DHT22;2929;50.810;8.342;2023-02-23T13:52:48;8.30;99.90
5806;DHT22;2929;50.810;8.342;2023-02-23T13:55:50;8.40;99.90
5806;DHT22;2929;50.810;8.342;2023-02-23T13:58:23;8.40;99.90
5806;DHT22;2929;50.810;8.342;2023-02-23T14:01:01;8.30;99.90
5806;DHT22;2929;50.810;8.342;2023-02-23T14:03:32;8.30;99.90
5806;DHT22;2929;50.810;8.342;2023-02-23T14:06:03;8.30;99.90
5806;DHT22;2929;50.810;8.342;2023-02-23T14:08:35;8.30;99.90
5806;DHT22;2929;50.810;8.342;2023-02-23T14:11:05;8.20;99.90
5806;DHT22;2929;50.810;8.342;2023-02-23T14:13:33;8.10;99.90
5806;DHT22;2929;50.810;8.342;2023-02-23T14:16:13;8.10;99.90
5806;DHT22;2929;50.810;8.342;2023-02-23T14:19:03;8.10;99.90
5806;DHT22;2929;50.810;8.342;2023-02-23T14:21:33;8.10;99.90
5806;DHT22;2929;50.810;8.342;2023-02-23T14:24:04;8.10;99.90
5806;DHT22;2929;50.810;8.342;2023-02-23T14:26:41;8.00;99.90
5806;DHT22;2929;50.810;8.342;2023-02-23T14:29:20;8.00;99.90
5806;DHT22;2929;50.810;8.342;2023-02-23T14:31:59;7.90;99.90
5806;DHT22;2929;50.810;8.342;2023-02-23T14:34:58;7.90;99.90
5806;DHT22;2929;50.810;8.342;2023-02-23T14:37:30;7.90;99.90
5806;DHT22;2929;50.810;8.342;2023-02-23T14:40:03;8.00;99.90
5806;DHT22;2929;50.810;8.342;2023-02-23T14:42:34;8.00;99.90
5806;DHT22;2929;50.810;8.342;2023-02-23T14:45:15;8.10;99.90
5806;DHT22;2929;50.810;8.342;2023-02-23T14:47:46;8.10;99.90
5806;DHT22;2929;50.810;8.342;2023-02-23T14:50:18;8.10;99.90
5806;DHT22;2929;50.810;8.342;2023-02-23T14:52:50;8.20;99.90
5806;DHT22;2929;50.810;8.342;2023-02-23T14:55:21;8.30;99.90
5806;DHT22;2929;50.810;8.342;2023-02-23T14:57:49;8.30;99.90
5806;DHT22;2929;50.810;8.342;2023-02-23T15:00:20;8.30;99.90
5806;DHT22;2929;50.810;8.342;2023-02-23T15:02:55;8.30;99.90
5806;DHT22;2929;50.810;8.342;2023-02-23T15:05:29;8.30;99.90
5806;DHT22;2929;50.810;8.342;2023-02-23T15:08:01;8.30;99.90
5806;DHT22;2929;50.810;8.342;2023-02-23T15:10:32;8.30;99.90
5806;DHT22;2929;50.810;8.342;2023-02-23T15:13:07;8.20;99.90
5806;DHT22;2929;50.810;8.342;2023-02-23T15:15:40;8.10;99.90
5806;DHT22;2929;50.810;8.342;2023-02-23T15:21:52;8.10;99.90
5806;DHT22;2929;50.810;8.342;2023-02-23T15:24:24;8.10;99.90
5806;DHT22;2929;50.810;8.342;2023-02-23T15:26:53;8.00;99.90
5806;DHT22;2929;50.810;8.342;2023-02-23T15:29:23;8.00;99.90
5806;DHT22;2929;50.810;8.342;2023-02-23T15:31:52;8.00;99.90
5806;DHT22;2929;50.810;8.342;2023-02-23T15:34:24;8.10;99.90
5806;DHT22;2929;50.810;8.342;2023-02-23T15:36:55;8.10;99.90
5806;DHT22;2929;50.810;8.342;2023-02-23T15:39:32;8.10;99.90
5806;DHT22;2929;50.810;8.342;2023-02-23T15:42:03;8.10;99.90
5806;DHT22;2929;50.810;8.342;2023-02-23T15:44:32;8.10;99.90
5806;DHT22;2929;50.810;8.342;2023-02-23T15:47:04;8.00;99.90
5806;DHT22;2929;50.810;8.342;2023-02-23T15:49:35;8.00;99.90
5806;DHT22;2929;50.810;8.342;2023-02-23T15:52:07;8.00;99.90
5806;DHT22;2929;50.810;8.342;2023-02-23T15:54:42;8.00;99.90
5806;DHT22;2929;50.810;8.342;2023-02-23T15:57:19;8.00;99.90
5806;DHT22;2929;50.810;8.342;2023-02-23T15:59:48;8.00;99.90
5806;DHT22;2929;50.810;8.342;2023-02-23T16:02:21;7.90;99.90
5806;DHT22;2929;50.810;8.342;2023-02-23T16:04:49;7.90;99.90
5806;DHT22;2929;50.810;8.342;2023-02-23T16:07:18;7.80;99.90
5806;DHT22;2929;50.810;8.342;2023-02-23T16:09:51;7.80;99.90
5806;DHT22;2929;50.810;8.342;2023-02-23T16:12:22;7.80;99.90
5806;DHT22;2929;50.810;8.342;2023-02-23T16:14:53;7.80;99.90
5806;DHT22;2929;50.810;8.342;2023-02-23T16:17:26;7.80;99.90
5806;DHT22;2929;50.810;8.342;2023-02-23T16:19:55;7.80;99.90
5806;DHT22;2929;50.810;8.342;2023-02-23T16:22:24;7.70;99.90
5806;DHT22;2929;50.810;8.342;2023-02-23T16:24:59;7.70;99.90
5806;DHT22;2929;50.810;8.342;2023-02-23T16:27:27;7.80;99.90
5806;DHT22;2929;50.810;8.342;2023-02-23T16:29:59;7.70;99.90
5806;DHT22;2929;50.810;8.342;2023-02-23T16:32:34;7.70;99.90
5806;DHT22;2929;50.810;8.342;2023-02-23T16:35:13;7.70;99.90
5806;DHT22;2929;50.810;8.342;2023-02-23T16:37:56;7.60;99.90
5806;DHT22;2929;50.810;8.342;2023-02-23T16:40:24;7.60;99.90
5806;DHT22;2929;50.810;8.342;2023-02-23T16:42:51;7.70;99.90
5806;DHT22;2929;50.810;8.342;2023-02-23T16:45:25;7.60;99.90
5806;DHT22;2929;50.810;8.342;2023-02-23T16:47:54;7.50;99.90
5806;DHT22;2929;50.810;8.342;2023-02-23T16:50:27;7.60;99.90
5806;DHT22;2929;50.810;8.342;2023-02-23T16:52:54;7.60;99.90
5806;DHT22;2929;50.810;8.342;2023-02-23T16:55:23;7.50;99.90
5806;DHT22;2929;50.810;8.342;2023-02-23T16:57:53;7.50;99.90
5806;DHT22;2929;50.810;8.342;2023-02-23T17:00:23;7.50;99.90
5806;DHT22;2929;50.810;8.342;2023-02-23T17:02:51;7.50;99.90
5806;DHT22;2929;50.810;8.342;2023-02-23T17:05:20;7.50;99.90
5806;DHT22;2929;50.810;8.342;2023-02-23T17:07:49;7.50;99.90
5806;DHT22;2929;50.810;8.342;2023-02-23T17:10:21;7.50;99.90
5806;DHT22;2929;50.810;8.342;2023-02-23T17:12:52;7.50;99.90